Terminal Aerodrome Forecast
Issued by NWS

Home | Current Version | Previous Version | Text Only | Print | Product List | Glossary On
Versions: 1 2 3 4 5 6 7 8 9 10 11 12 13 14 15
000
FTUS46 KLOX 011126
TAFWJF
TAF
KWJF 011126Z 0112/0212 23012KT P6SM SCT100 BKN200
     FM011800 23015G25KT P6SM BKN120 OVC250
     FM012200 22022G30KT P6SM SCT080 BKN120
     FM020300 22018KT P6SM SCT150
     FM020700 23012KT P6SM SCT150=

USA.gov is the U.S. government's official web portal to all federal, state and local government web resources and services.